sensor_id;sensor_type;location;lat;lon;timestamp;P1;durP1;ratioP1;P2;durP2;ratioP2
6356;SDS011;3211;53.452;-2.264;2023-11-19T00:02:32;10.67;;;2.23;;
6356;SDS011;3211;53.452;-2.264;2023-11-19T00:05:22;7.50;;;3.30;;
6356;SDS011;3211;53.452;-2.264;2023-11-19T00:08:09;11.40;;;2.60;;
6356;SDS011;3211;53.452;-2.264;2023-11-19T00:10:56;11.80;;;2.37;;
6356;SDS011;3211;53.452;-2.264;2023-11-19T00:13:44;10.33;;;2.87;;
6356;SDS011;3211;53.452;-2.264;2023-11-19T00:16:31;11.50;;;2.73;;
6356;SDS011;3211;53.452;-2.264;2023-11-19T00:19:19;9.30;;;3.03;;
6356;SDS011;3211;53.452;-2.264;2023-11-19T00:22:08;14.23;;;3.30;;
6356;SDS011;3211;53.452;-2.264;2023-11-19T00:24:55;13.17;;;2.87;;
6356;SDS011;3211;53.452;-2.264;2023-11-19T00:27:43;8.67;;;3.23;;
6356;SDS011;3211;53.452;-2.264;2023-11-19T00:30:31;11.77;;;2.70;;
6356;SDS011;3211;53.452;-2.264;2023-11-19T00:33:18;11.03;;;3.77;;
6356;SDS011;3211;53.452;-2.264;2023-11-19T00:36:06;12.30;;;3.03;;
6356;SDS011;3211;53.452;-2.264;2023-11-19T00:38:55;10.50;;;3.57;;
6356;SDS011;3211;53.452;-2.264;2023-11-19T00:41:43;12.40;;;3.10;;
6356;SDS011;3211;53.452;-2.264;2023-11-19T00:44:31;8.57;;;2.60;;
6356;SDS011;3211;53.452;-2.264;2023-11-19T00:47:19;10.77;;;3.50;;
6356;SDS011;3211;53.452;-2.264;2023-11-19T00:50:07;12.93;;;3.60;;
6356;SDS011;3211;53.452;-2.264;2023-11-19T00:52:57;19.07;;;3.60;;
6356;SDS011;3211;53.452;-2.264;2023-11-19T00:55:45;10.10;;;3.67;;
6356;SDS011;3211;53.452;-2.264;2023-11-19T00:58:33;9.13;;;2.00;;
6356;SDS011;3211;53.452;-2.264;2023-11-19T01:01:20;11.40;;;3.00;;
6356;SDS011;3211;53.452;-2.264;2023-11-19T01:04:08;9.70;;;2.40;;
6356;SDS011;3211;53.452;-2.264;2023-11-19T01:06:55;9.03;;;2.87;;
6356;SDS011;3211;53.452;-2.264;2023-11-19T01:09:42;11.03;;;2.47;;
6356;SDS011;3211;53.452;-2.264;2023-11-19T01:12:31;11.20;;;2.80;;
6356;SDS011;3211;53.452;-2.264;2023-11-19T01:15:19;7.30;;;2.60;;
6356;SDS011;3211;53.452;-2.264;2023-11-19T01:18:06;10.47;;;2.47;;
6356;SDS011;3211;53.452;-2.264;2023-11-19T01:20:54;9.17;;;2.83;;
6356;SDS011;3211;53.452;-2.264;2023-11-19T01:23:41;10.43;;;2.63;;
6356;SDS011;3211;53.452;-2.264;2023-11-19T01:26:30;7.50;;;1.97;;
6356;SDS011;3211;53.452;-2.264;2023-11-19T01:29:19;8.67;;;2.23;;
6356;SDS011;3211;53.452;-2.264;2023-11-19T01:32:07;7.17;;;2.10;;
6356;SDS011;3211;53.452;-2.264;2023-11-19T01:34:55;12.43;;;2.97;;
6356;SDS011;3211;53.452;-2.264;2023-11-19T01:37:42;6.53;;;2.90;;
6356;SDS011;3211;53.452;-2.264;2023-11-19T01:40:29;4.43;;;1.90;;
6356;SDS011;3211;53.452;-2.264;2023-11-19T01:43:30;11.77;;;2.17;;
6356;SDS011;3211;53.452;-2.264;2023-11-19T01:46:20;8.57;;;2.30;;
6356;SDS011;3211;53.452;-2.264;2023-11-19T01:49:08;8.63;;;2.73;;
6356;SDS011;3211;53.452;-2.264;2023-11-19T01:51:57;10.43;;;3.77;;
6356;SDS011;3211;53.452;-2.264;2023-11-19T01:54:44;8.90;;;2.10;;
6356;SDS011;3211;53.452;-2.264;2023-11-19T01:57:33;9.13;;;2.30;;
6356;SDS011;3211;53.452;-2.264;2023-11-19T02:00:20;3.80;;;1.70;;
6356;SDS011;3211;53.452;-2.264;2023-11-19T02:03:09;5.10;;;2.37;;
6356;SDS011;3211;53.452;-2.264;2023-11-19T02:05:58;10.90;;;2.70;;
6356;SDS011;3211;53.452;-2.264;2023-11-19T02:08:46;9.17;;;2.93;;
6356;SDS011;3211;53.452;-2.264;2023-11-19T02:11:34;8.23;;;2.27;;
6356;SDS011;3211;53.452;-2.264;2023-11-19T02:14:22;11.50;;;2.70;;
6356;SDS011;3211;53.452;-2.264;2023-11-19T02:17:24;9.60;;;2.33;;
6356;SDS011;3211;53.452;-2.264;2023-11-19T02:20:14;11.20;;;2.63;;
6356;SDS011;3211;53.452;-2.264;2023-11-19T02:23:02;11.30;;;2.40;;
6356;SDS011;3211;53.452;-2.264;2023-11-19T02:25:54;9.13;;;3.20;;
6356;SDS011;3211;53.452;-2.264;2023-11-19T02:29:00;11.03;;;2.40;;
6356;SDS011;3211;53.452;-2.264;2023-11-19T02:31:49;12.13;;;3.27;;
6356;SDS011;3211;53.452;-2.264;2023-11-19T02:34:36;8.13;;;2.30;;
6356;SDS011;3211;53.452;-2.264;2023-11-19T02:37:25;7.50;;;2.00;;
6356;SDS011;3211;53.452;-2.264;2023-11-19T02:40:13;5.33;;;2.03;;
6356;SDS011;3211;53.452;-2.264;2023-11-19T02:43:02;6.80;;;2.67;;
6356;SDS011;3211;53.452;-2.264;2023-11-19T02:45:53;11.63;;;2.50;;
6356;SDS011;3211;53.452;-2.264;2023-11-19T02:48:41;8.97;;;2.53;;
6356;SDS011;3211;53.452;-2.264;2023-11-19T02:51:29;4.50;;;2.20;;
6356;SDS011;3211;53.452;-2.264;2023-11-19T02:54:17;7.97;;;2.40;;
6356;SDS011;3211;53.452;-2.264;2023-11-19T02:57:05;5.03;;;1.83;;
6356;SDS011;3211;53.452;-2.264;2023-11-19T02:59:55;5.13;;;1.90;;
6356;SDS011;3211;53.452;-2.264;2023-11-19T03:02:44;16.10;;;2.83;;
6356;SDS011;3211;53.452;-2.264;2023-11-19T03:05:33;8.60;;;2.10;;
6356;SDS011;3211;53.452;-2.264;2023-11-19T03:08:21;5.90;;;2.00;;
6356;SDS011;3211;53.452;-2.264;2023-11-19T03:11:09;11.83;;;2.30;;
6356;SDS011;3211;53.452;-2.264;2023-11-19T03:13:56;10.20;;;2.40;;
6356;SDS011;3211;53.452;-2.264;2023-11-19T03:16:44;13.73;;;2.27;;
6356;SDS011;3211;53.452;-2.264;2023-11-19T03:19:34;10.50;;;3.10;;
6356;SDS011;3211;53.452;-2.264;2023-11-19T03:22:22;4.80;;;2.10;;
6356;SDS011;3211;53.452;-2.264;2023-11-19T03:25:10;8.53;;;2.20;;
6356;SDS011;3211;53.452;-2.264;2023-11-19T03:27:58;11.37;;;2.43;;
6356;SDS011;3211;53.452;-2.264;2023-11-19T03:30:46;8.73;;;2.70;;
6356;SDS011;3211;53.452;-2.264;2023-11-19T03:33:33;9.43;;;1.97;;
6356;SDS011;3211;53.452;-2.264;2023-11-19T03:36:23;10.53;;;2.30;;
6356;SDS011;3211;53.452;-2.264;2023-11-19T03:39:11;11.10;;;2.30;;
6356;SDS011;3211;53.452;-2.264;2023-11-19T03:41:58;16.33;;;3.40;;
6356;SDS011;3211;53.452;-2.264;2023-11-19T03:44:45;7.27;;;2.10;;
6356;SDS011;3211;53.452;-2.264;2023-11-19T03:47:35;9.37;;;2.07;;
6356;SDS011;3211;53.452;-2.264;2023-11-19T03:50:22;8.47;;;2.07;;
6356;SDS011;3211;53.452;-2.264;2023-11-19T03:53:11;10.60;;;2.43;;
6356;SDS011;3211;53.452;-2.264;2023-11-19T03:55:59;12.47;;;2.73;;
6356;SDS011;3211;53.452;-2.264;2023-11-19T03:58:46;10.63;;;2.50;;
6356;SDS011;3211;53.452;-2.264;2023-11-19T04:01:33;14.00;;;3.20;;
6356;SDS011;3211;53.452;-2.264;2023-11-19T04:04:21;6.37;;;2.53;;
6356;SDS011;3211;53.452;-2.264;2023-11-19T04:07:09;12.53;;;2.33;;
6356;SDS011;3211;53.452;-2.264;2023-11-19T04:09:57;6.10;;;2.97;;
6356;SDS011;3211;53.452;-2.264;2023-11-19T04:12:45;14.07;;;2.97;;
6356;SDS011;3211;53.452;-2.264;2023-11-19T04:15:32;9.00;;;2.03;;
6356;SDS011;3211;53.452;-2.264;2023-11-19T04:18:20;9.60;;;2.40;;
6356;SDS011;3211;53.452;-2.264;2023-11-19T04:21:07;7.87;;;2.00;;
6356;SDS011;3211;53.452;-2.264;2023-11-19T04:23:55;10.43;;;2.50;;
6356;SDS011;3211;53.452;-2.264;2023-11-19T04:26:44;6.30;;;2.20;;
6356;SDS011;3211;53.452;-2.264;2023-11-19T04:29:32;8.00;;;2.50;;
6356;SDS011;3211;53.452;-2.264;2023-11-19T04:32:20;13.43;;;2.17;;
6356;SDS011;3211;53.452;-2.264;2023-11-19T04:35:08;5.97;;;1.80;;
6356;SDS011;3211;53.452;-2.264;2023-11-19T04:37:56;5.53;;;2.17;;
6356;SDS011;3211;53.452;-2.264;2023-11-19T04:40:44;6.10;;;2.10;;
6356;SDS011;3211;53.452;-2.264;2023-11-19T04:43:33;9.47;;;2.20;;
6356;SDS011;3211;53.452;-2.264;2023-11-19T04:46:21;7.50;;;2.10;;
6356;SDS011;3211;53.452;-2.264;2023-11-19T04:49:09;8.23;;;2.47;;
6356;SDS011;3211;53.452;-2.264;2023-11-19T04:51:57;6.30;;;1.90;;
6356;SDS011;3211;53.452;-2.264;2023-11-19T04:54:45;9.70;;;1.90;;
6356;SDS011;3211;53.452;-2.264;2023-11-19T04:57:33;7.83;;;2.20;;
6356;SDS011;3211;53.452;-2.264;2023-11-19T05:00:22;5.00;;;1.63;;
6356;SDS011;3211;53.452;-2.264;2023-11-19T05:03:10;10.63;;;2.17;;
6356;SDS011;3211;53.452;-2.264;2023-11-19T05:05:57;8.70;;;2.20;;
6356;SDS011;3211;53.452;-2.264;2023-11-19T05:08:44;3.63;;;1.70;;
6356;SDS011;3211;53.452;-2.264;2023-11-19T05:11:32;7.70;;;1.80;;
6356;SDS011;3211;53.452;-2.264;2023-11-19T05:14:20;4.00;;;1.70;;
6356;SDS011;3211;53.452;-2.264;2023-11-19T05:17:11;8.33;;;1.67;;
6356;SDS011;3211;53.452;-2.264;2023-11-19T05:19:58;4.23;;;1.67;;
6356;SDS011;3211;53.452;-2.264;2023-11-19T05:22:46;5.17;;;1.53;;
6356;SDS011;3211;53.452;-2.264;2023-11-19T05:25:33;4.33;;;1.60;;
6356;SDS011;3211;53.452;-2.264;2023-11-19T05:28:20;4.43;;;1.40;;
6356;SDS011;3211;53.452;-2.264;2023-11-19T05:31:10;3.97;;;1.23;;
6356;SDS011;3211;53.452;-2.264;2023-11-19T05:33:59;7.17;;;1.80;;
6356;SDS011;3211;53.452;-2.264;2023-11-19T05:36:46;5.43;;;1.60;;
6356;SDS011;3211;53.452;-2.264;2023-11-19T05:39:35;2.40;;;1.30;;
6356;SDS011;3211;53.452;-2.264;2023-11-19T05:42:22;7.13;;;1.63;;
6356;SDS011;3211;53.452;-2.264;2023-11-19T05:45:11;4.53;;;1.53;;
6356;SDS011;3211;53.452;-2.264;2023-11-19T05:47:59;9.23;;;2.07;;
6356;SDS011;3211;53.452;-2.264;2023-11-19T05:50:48;6.93;;;1.90;;
6356;SDS011;3211;53.452;-2.264;2023-11-19T05:53:35;6.40;;;2.77;;
6356;SDS011;3211;53.452;-2.264;2023-11-19T05:56:23;5.10;;;1.80;;
6356;SDS011;3211;53.452;-2.264;2023-11-19T05:59:17;9.13;;;2.10;;
6356;SDS011;3211;53.452;-2.264;2023-11-19T06:02:05;6.40;;;2.30;;
6356;SDS011;3211;53.452;-2.264;2023-11-19T06:04:53;7.73;;;2.00;;
6356;SDS011;3211;53.452;-2.264;2023-11-19T06:07:41;15.57;;;2.07;;
6356;SDS011;3211;53.452;-2.264;2023-11-19T06:10:29;5.73;;;2.17;;
6356;SDS011;3211;53.452;-2.264;2023-11-19T06:13:17;6.40;;;1.90;;
6356;SDS011;3211;53.452;-2.264;2023-11-19T06:16:05;8.57;;;1.77;;
6356;SDS011;3211;53.452;-2.264;2023-11-19T06:18:53;9.43;;;2.60;;
6356;SDS011;3211;53.452;-2.264;2023-11-19T06:21:41;3.77;;;1.70;;
6356;SDS011;3211;53.452;-2.264;2023-11-19T06:24:30;7.30;;;1.63;;
6356;SDS011;3211;53.452;-2.264;2023-11-19T06:27:17;5.43;;;1.70;;
6356;SDS011;3211;53.452;-2.264;2023-11-19T06:30:05;8.50;;;2.20;;
6356;SDS011;3211;53.452;-2.264;2023-11-19T06:32:54;8.17;;;2.40;;
6356;SDS011;3211;53.452;-2.264;2023-11-19T06:35:41;6.53;;;2.63;;
6356;SDS011;3211;53.452;-2.264;2023-11-19T06:38:29;5.60;;;1.70;;
6356;SDS011;3211;53.452;-2.264;2023-11-19T06:41:18;6.90;;;1.73;;
6356;SDS011;3211;53.452;-2.264;2023-11-19T06:44:06;5.53;;;1.87;;
6356;SDS011;3211;53.452;-2.264;2023-11-19T06:46:53;7.63;;;1.93;;
6356;SDS011;3211;53.452;-2.264;2023-11-19T06:49:43;7.13;;;1.50;;
6356;SDS011;3211;53.452;-2.264;2023-11-19T06:52:30;7.73;;;2.03;;
6356;SDS011;3211;53.452;-2.264;2023-11-19T06:55:18;6.80;;;2.47;;
6356;SDS011;3211;53.452;-2.264;2023-11-19T06:58:07;6.70;;;1.90;;
6356;SDS011;3211;53.452;-2.264;2023-11-19T07:00:55;2.93;;;1.57;;
6356;SDS011;3211;53.452;-2.264;2023-11-19T07:03:42;12.10;;;2.30;;
6356;SDS011;3211;53.452;-2.264;2023-11-19T07:06:32;10.83;;;2.77;;
6356;SDS011;3211;53.452;-2.264;2023-11-19T07:09:19;6.37;;;1.57;;
6356;SDS011;3211;53.452;-2.264;2023-11-19T07:12:08;9.70;;;2.33;;
6356;SDS011;3211;53.452;-2.264;2023-11-19T07:14:58;8.63;;;2.17;;
6356;SDS011;3211;53.452;-2.264;2023-11-19T07:17:47;9.70;;;1.80;;
6356;SDS011;3211;53.452;-2.264;2023-11-19T07:20:35;6.00;;;1.90;;
6356;SDS011;3211;53.452;-2.264;2023-11-19T07:23:23;4.50;;;1.80;;
6356;SDS011;3211;53.452;-2.264;2023-11-19T07:26:11;5.97;;;1.87;;
6356;SDS011;3211;53.452;-2.264;2023-11-19T07:28:58;3.60;;;1.40;;
6356;SDS011;3211;53.452;-2.264;2023-11-19T07:31:49;10.07;;;2.07;;
6356;SDS011;3211;53.452;-2.264;2023-11-19T07:34:37;8.07;;;2.10;;
6356;SDS011;3211;53.452;-2.264;2023-11-19T07:37:25;7.93;;;1.77;;
6356;SDS011;3211;53.452;-2.264;2023-11-19T07:40:14;6.57;;;2.10;;
6356;SDS011;3211;53.452;-2.264;2023-11-19T07:43:01;7.30;;;2.67;;
6356;SDS011;3211;53.452;-2.264;2023-11-19T07:45:49;5.63;;;2.07;;
6356;SDS011;3211;53.452;-2.264;2023-11-19T07:48:38;12.83;;;1.97;;
6356;SDS011;3211;53.452;-2.264;2023-11-19T07:51:25;10.70;;;2.10;;
6356;SDS011;3211;53.452;-2.264;2023-11-19T07:54:13;5.30;;;1.80;;
6356;SDS011;3211;53.452;-2.264;2023-11-19T07:57:00;8.20;;;2.40;;
6356;SDS011;3211;53.452;-2.264;2023-11-19T07:59:47;4.40;;;1.50;;
6356;SDS011;3211;53.452;-2.264;2023-11-19T08:02:35;5.63;;;1.87;;
6356;SDS011;3211;53.452;-2.264;2023-11-19T08:05:23;5.73;;;2.00;;
6356;SDS011;3211;53.452;-2.264;2023-11-19T08:08:11;12.40;;;2.30;;
6356;SDS011;3211;53.452;-2.264;2023-11-19T08:10:58;9.77;;;2.17;;
6356;SDS011;3211;53.452;-2.264;2023-11-19T08:13:46;5.53;;;2.23;;
6356;SDS011;3211;53.452;-2.264;2023-11-19T08:16:34;9.60;;;2.80;;
6356;SDS011;3211;53.452;-2.264;2023-11-19T08:19:25;3.70;;;1.77;;
6356;SDS011;3211;53.452;-2.264;2023-11-19T08:22:15;12.40;;;2.27;;
6356;SDS011;3211;53.452;-2.264;2023-11-19T08:25:03;5.97;;;2.33;;
6356;SDS011;3211;53.452;-2.264;2023-11-19T08:27:51;5.57;;;2.03;;
6356;SDS011;3211;53.452;-2.264;2023-11-19T08:30:38;5.57;;;2.00;;
6356;SDS011;3211;53.452;-2.264;2023-11-19T08:33:26;10.27;;;1.93;;
6356;SDS011;3211;53.452;-2.264;2023-11-19T08:36:17;4.00;;;1.90;;
6356;SDS011;3211;53.452;-2.264;2023-11-19T08:39:06;6.20;;;1.80;;
6356;SDS011;3211;53.452;-2.264;2023-11-19T08:41:54;8.30;;;1.90;;
6356;SDS011;3211;53.452;-2.264;2023-11-19T08:44:42;9.50;;;1.73;;
6356;SDS011;3211;53.452;-2.264;2023-11-19T08:47:32;5.90;;;1.63;;
6356;SDS011;3211;53.452;-2.264;2023-11-19T08:50:20;9.30;;;2.00;;
6356;SDS011;3211;53.452;-2.264;2023-11-19T08:53:08;3.53;;;1.67;;
6356;SDS011;3211;53.452;-2.264;2023-11-19T08:55:58;7.67;;;2.27;;
6356;SDS011;3211;53.452;-2.264;2023-11-19T08:58:45;6.60;;;2.00;;
6356;SDS011;3211;53.452;-2.264;2023-11-19T09:01:33;6.93;;;2.53;;
6356;SDS011;3211;53.452;-2.264;2023-11-19T09:04:20;7.90;;;1.83;;
6356;SDS011;3211;53.452;-2.264;2023-11-19T09:07:09;6.57;;;1.93;;
6356;SDS011;3211;53.452;-2.264;2023-11-19T09:09:56;10.97;;;2.10;;
6356;SDS011;3211;53.452;-2.264;2023-11-19T09:12:45;9.10;;;2.00;;
6356;SDS011;3211;53.452;-2.264;2023-11-19T09:15:32;11.00;;;2.10;;
6356;SDS011;3211;53.452;-2.264;2023-11-19T09:18:19;3.50;;;1.70;;
6356;SDS011;3211;53.452;-2.264;2023-11-19T09:21:07;4.50;;;1.70;;
6356;SDS011;3211;53.452;-2.264;2023-11-19T09:23:54;6.57;;;2.53;;
6356;SDS011;3211;53.452;-2.264;2023-11-19T09:26:41;4.23;;;1.80;;
6356;SDS011;3211;53.452;-2.264;2023-11-19T09:29:32;3.40;;;1.40;;
6356;SDS011;3211;53.452;-2.264;2023-11-19T09:32:20;7.83;;;2.00;;
6356;SDS011;3211;53.452;-2.264;2023-11-19T09:35:08;7.30;;;2.00;;
6356;SDS011;3211;53.452;-2.264;2023-11-19T09:37:58;9.30;;;1.60;;
6356;SDS011;3211;53.452;-2.264;2023-11-19T09:40:46;5.40;;;1.53;;
6356;SDS011;3211;53.452;-2.264;2023-11-19T09:43:34;6.97;;;1.80;;
6356;SDS011;3211;53.452;-2.264;2023-11-19T09:46:23;6.47;;;1.63;;
6356;SDS011;3211;53.452;-2.264;2023-11-19T09:49:11;4.10;;;1.67;;
6356;SDS011;3211;53.452;-2.264;2023-11-19T09:52:01;5.03;;;2.03;;
6356;SDS011;3211;53.452;-2.264;2023-11-19T09:54:49;8.30;;;1.93;;
6356;SDS011;3211;53.452;-2.264;2023-11-19T09:57:37;5.63;;;1.50;;
6356;SDS011;3211;53.452;-2.264;2023-11-19T10:00:25;4.23;;;1.47;;
6356;SDS011;3211;53.452;-2.264;2023-11-19T10:03:15;5.97;;;1.90;;
6356;SDS011;3211;53.452;-2.264;2023-11-19T10:06:02;10.10;;;1.83;;
6356;SDS011;3211;53.452;-2.264;2023-11-19T10:08:50;2.60;;;1.67;;
6356;SDS011;3211;53.452;-2.264;2023-11-19T10:11:37;5.27;;;2.00;;
6356;SDS011;3211;53.452;-2.264;2023-11-19T10:14:24;5.13;;;1.90;;
6356;SDS011;3211;53.452;-2.264;2023-11-19T10:17:14;6.00;;;1.87;;
6356;SDS011;3211;53.452;-2.264;2023-11-19T10:20:02;4.30;;;1.60;;
6356;SDS011;3211;53.452;-2.264;2023-11-19T10:22:52;6.00;;;1.43;;
6356;SDS011;3211;53.452;-2.264;2023-11-19T10:25:40;3.00;;;1.20;;
6356;SDS011;3211;53.452;-2.264;2023-11-19T10:28:27;7.23;;;1.70;;
6356;SDS011;3211;53.452;-2.264;2023-11-19T10:31:14;6.10;;;1.73;;
6356;SDS011;3211;53.452;-2.264;2023-11-19T10:34:02;2.47;;;1.23;;
6356;SDS011;3211;53.452;-2.264;2023-11-19T10:36:52;1.43;;;1.10;;
6356;SDS011;3211;53.452;-2.264;2023-11-19T10:39:51;2.47;;;1.47;;
6356;SDS011;3211;53.452;-2.264;2023-11-19T10:42:41;6.60;;;1.23;;
6356;SDS011;3211;53.452;-2.264;2023-11-19T10:45:28;6.63;;;1.60;;
6356;SDS011;3211;53.452;-2.264;2023-11-19T10:48:16;2.03;;;1.20;;
6356;SDS011;3211;53.452;-2.264;2023-11-19T10:51:06;2.23;;;1.27;;
6356;SDS011;3211;53.452;-2.264;2023-11-19T10:53:57;7.17;;;1.30;;
6356;SDS011;3211;53.452;-2.264;2023-11-19T10:56:54;3.67;;;1.60;;
6356;SDS011;3211;53.452;-2.264;2023-11-19T10:59:46;1.47;;;1.20;;
6356;SDS011;3211;53.452;-2.264;2023-11-19T11:02:38;4.50;;;1.40;;
6356;SDS011;3211;53.452;-2.264;2023-11-19T11:05:32;5.17;;;1.20;;
6356;SDS011;3211;53.452;-2.264;2023-11-19T11:08:20;3.90;;;1.23;;
6356;SDS011;3211;53.452;-2.264;2023-11-19T11:11:09;4.13;;;1.40;;
6356;SDS011;3211;53.452;-2.264;2023-11-19T11:14:01;1.67;;;1.33;;
6356;SDS011;3211;53.452;-2.264;2023-11-19T11:16:49;2.40;;;1.40;;
6356;SDS011;3211;53.452;-2.264;2023-11-19T11:19:38;1.50;;;1.20;;
6356;SDS011;3211;53.452;-2.264;2023-11-19T11:22:25;6.50;;;1.60;;
6356;SDS011;3211;53.452;-2.264;2023-11-19T11:25:22;3.87;;;1.60;;
6356;SDS011;3211;53.452;-2.264;2023-11-19T11:28:23;2.00;;;1.30;;
6356;SDS011;3211;53.452;-2.264;2023-11-19T11:31:23;3.47;;;1.40;;
6356;SDS011;3211;53.452;-2.264;2023-11-19T11:34:31;2.23;;;1.30;;
6356;SDS011;3211;53.452;-2.264;2023-11-19T11:37:37;1.47;;;1.10;;
6356;SDS011;3211;53.452;-2.264;2023-11-19T11:40:32;2.37;;;1.20;;
6356;SDS011;3211;53.452;-2.264;2023-11-19T11:46:54;4.57;;;1.30;;
6356;SDS011;3211;53.452;-2.264;2023-11-19T11:49:42;3.77;;;1.90;;
6356;SDS011;3211;53.452;-2.264;2023-11-19T11:52:29;2.80;;;1.10;;
6356;SDS011;3211;53.452;-2.264;2023-11-19T11:55:17;3.53;;;1.47;;
6356;SDS011;3211;53.452;-2.264;2023-11-19T11:58:06;2.03;;;1.20;;
6356;SDS011;3211;53.452;-2.264;2023-11-19T12:00:56;1.90;;;1.20;;
6356;SDS011;3211;53.452;-2.264;2023-11-19T12:03:46;1.03;;;0.93;;
6356;SDS011;3211;53.452;-2.264;2023-11-19T12:06:36;1.30;;;1.13;;
6356;SDS011;3211;53.452;-2.264;2023-11-19T12:09:23;3.10;;;1.00;;
6356;SDS011;3211;53.452;-2.264;2023-11-19T12:12:17;1.77;;;1.10;;
6356;SDS011;3211;53.452;-2.264;2023-11-19T12:15:06;1.20;;;1.00;;
6356;SDS011;3211;53.452;-2.264;2023-11-19T12:17:57;2.40;;;1.13;;
6356;SDS011;3211;53.452;-2.264;2023-11-19T12:20:45;2.27;;;1.17;;
6356;SDS011;3211;53.452;-2.264;2023-11-19T12:23:32;2.03;;;1.10;;
6356;SDS011;3211;53.452;-2.264;2023-11-19T12:26:21;1.33;;;1.10;;
6356;SDS011;3211;53.452;-2.264;2023-11-19T12:29:18;1.17;;;1.07;;
6356;SDS011;3211;53.452;-2.264;2023-11-19T12:32:06;1.40;;;1.10;;
6356;SDS011;3211;53.452;-2.264;2023-11-19T12:34:56;1.30;;;1.10;;
6356;SDS011;3211;53.452;-2.264;2023-11-19T12:37:45;1.50;;;1.10;;
6356;SDS011;3211;53.452;-2.264;2023-11-19T12:40:35;1.10;;;1.00;;
6356;SDS011;3211;53.452;-2.264;2023-11-19T12:43:22;1.50;;;1.00;;
6356;SDS011;3211;53.452;-2.264;2023-11-19T12:46:19;1.20;;;1.10;;
6356;SDS011;3211;53.452;-2.264;2023-11-19T12:49:07;2.20;;;1.27;;
6356;SDS011;3211;53.452;-2.264;2023-11-19T12:51:59;1.47;;;1.17;;
6356;SDS011;3211;53.452;-2.264;2023-11-19T12:54:47;2.17;;;1.33;;
6356;SDS011;3211;53.452;-2.264;2023-11-19T12:57:38;2.00;;;1.30;;
6356;SDS011;3211;53.452;-2.264;2023-11-19T13:00:26;1.87;;;1.10;;
6356;SDS011;3211;53.452;-2.264;2023-11-19T13:03:22;1.93;;;1.10;;
6356;SDS011;3211;53.452;-2.264;2023-11-19T13:06:17;1.50;;;1.20;;
6356;SDS011;3211;53.452;-2.264;2023-11-19T13:09:07;5.27;;;1.50;;
6356;SDS011;3211;53.452;-2.264;2023-11-19T13:11:58;2.70;;;1.53;;
6356;SDS011;3211;53.452;-2.264;2023-11-19T13:14:49;6.00;;;1.43;;
6356;SDS011;3211;53.452;-2.264;2023-11-19T13:17:36;1.93;;;1.17;;
6356;SDS011;3211;53.452;-2.264;2023-11-19T13:20:24;1.73;;;1.30;;
6356;SDS011;3211;53.452;-2.264;2023-11-19T13:23:11;2.23;;;1.70;;
6356;SDS011;3211;53.452;-2.264;2023-11-19T13:26:01;2.30;;;1.10;;
6356;SDS011;3211;53.452;-2.264;2023-11-19T13:28:50;1.30;;;1.20;;
6356;SDS011;3211;53.452;-2.264;2023-11-19T13:31:37;1.70;;;1.23;;
6356;SDS011;3211;53.452;-2.264;2023-11-19T13:34:24;2.20;;;1.50;;
6356;SDS011;3211;53.452;-2.264;2023-11-19T13:37:12;2.70;;;1.23;;
6356;SDS011;3211;53.452;-2.264;2023-11-19T13:39:59;1.60;;;1.50;;
6356;SDS011;3211;53.452;-2.264;2023-11-19T13:42:48;1.63;;;1.50;;
6356;SDS011;3211;53.452;-2.264;2023-11-19T13:45:35;3.00;;;1.50;;
6356;SDS011;3211;53.452;-2.264;2023-11-19T13:48:23;2.80;;;1.30;;
6356;SDS011;3211;53.452;-2.264;2023-11-19T13:51:12;2.30;;;1.40;;
6356;SDS011;3211;53.452;-2.264;2023-11-19T13:53:59;2.13;;;1.40;;
6356;SDS011;3211;53.452;-2.264;2023-11-19T13:56:46;2.20;;;1.53;;
6356;SDS011;3211;53.452;-2.264;2023-11-19T13:59:37;2.13;;;1.60;;
6356;SDS011;3211;53.452;-2.264;2023-11-19T14:02:27;2.43;;;1.50;;
6356;SDS011;3211;53.452;-2.264;2023-11-19T14:05:14;4.50;;;1.40;;
6356;SDS011;3211;53.452;-2.264;2023-11-19T14:08:03;1.60;;;1.50;;
6356;SDS011;3211;53.452;-2.264;2023-11-19T14:10:56;1.97;;;1.10;;
6356;SDS011;3211;53.452;-2.264;2023-11-19T14:13:44;1.57;;;1.10;;
6356;SDS011;3211;53.452;-2.264;2023-11-19T14:16:33;2.10;;;1.60;;
6356;SDS011;3211;53.452;-2.264;2023-11-19T14:19:21;3.30;;;1.50;;
6356;SDS011;3211;53.452;-2.264;2023-11-19T14:22:08;2.93;;;1.43;;
6356;SDS011;3211;53.452;-2.264;2023-11-19T14:24:55;1.80;;;1.47;;
6356;SDS011;3211;53.452;-2.264;2023-11-19T14:27:43;1.47;;;1.37;;
6356;SDS011;3211;53.452;-2.264;2023-11-19T14:30:31;3.53;;;1.70;;
6356;SDS011;3211;53.452;-2.264;2023-11-19T14:33:21;3.43;;;1.50;;
6356;SDS011;3211;53.452;-2.264;2023-11-19T14:36:08;4.70;;;1.80;;
6356;SDS011;3211;53.452;-2.264;2023-11-19T14:38:56;2.87;;;1.57;;
6356;SDS011;3211;53.452;-2.264;2023-11-19T14:41:44;2.03;;;1.40;;
6356;SDS011;3211;53.452;-2.264;2023-11-19T14:44:31;1.57;;;1.27;;
6356;SDS011;3211;53.452;-2.264;2023-11-19T14:47:19;1.40;;;1.30;;
6356;SDS011;3211;53.452;-2.264;2023-11-19T14:50:08;2.43;;;1.40;;
6356;SDS011;3211;53.452;-2.264;2023-11-19T14:52:55;2.27;;;1.30;;
6356;SDS011;3211;53.452;-2.264;2023-11-19T14:55:43;3.27;;;1.73;;
6356;SDS011;3211;53.452;-2.264;2023-11-19T14:58:31;2.23;;;1.23;;
6356;SDS011;3211;53.452;-2.264;2023-11-19T15:01:18;1.60;;;1.50;;
6356;SDS011;3211;53.452;-2.264;2023-11-19T15:04:05;2.80;;;1.40;;
6356;SDS011;3211;53.452;-2.264;2023-11-19T15:06:56;1.53;;;1.20;;
6356;SDS011;3211;53.452;-2.264;2023-11-19T15:09:43;1.67;;;1.57;;
6356;SDS011;3211;53.452;-2.264;2023-11-19T15:12:31;3.57;;;1.30;;
6356;SDS011;3211;53.452;-2.264;2023-11-19T15:15:18;1.60;;;1.10;;
6356;SDS011;3211;53.452;-2.264;2023-11-19T15:18:05;4.40;;;1.10;;
6356;SDS011;3211;53.452;-2.264;2023-11-19T15:20:52;2.17;;;1.13;;
6356;SDS011;3211;53.452;-2.264;2023-11-19T15:23:43;3.43;;;1.40;;
6356;SDS011;3211;53.452;-2.264;2023-11-19T15:26:31;1.63;;;1.30;;
6356;SDS011;3211;53.452;-2.264;2023-11-19T15:29:19;1.20;;;1.10;;
6356;SDS011;3211;53.452;-2.264;2023-11-19T15:32:06;2.70;;;1.37;;
6356;SDS011;3211;53.452;-2.264;2023-11-19T15:34:54;1.73;;;1.13;;
6356;SDS011;3211;53.452;-2.264;2023-11-19T15:37:41;1.57;;;1.20;;
6356;SDS011;3211;53.452;-2.264;2023-11-19T15:40:31;2.70;;;1.40;;
6356;SDS011;3211;53.452;-2.264;2023-11-19T15:43:19;1.63;;;1.10;;
6356;SDS011;3211;53.452;-2.264;2023-11-19T15:46:06;3.90;;;1.77;;
6356;SDS011;3211;53.452;-2.264;2023-11-19T15:48:54;2.30;;;1.23;;
6356;SDS011;3211;53.452;-2.264;2023-11-19T15:51:41;1.20;;;1.00;;
6356;SDS011;3211;53.452;-2.264;2023-11-19T15:54:29;1.30;;;1.20;;
6356;SDS011;3211;53.452;-2.264;2023-11-19T15:57:17;4.80;;;1.20;;
6356;SDS011;3211;53.452;-2.264;2023-11-19T16:00:05;1.43;;;1.27;;
6356;SDS011;3211;53.452;-2.264;2023-11-19T16:02:56;1.57;;;1.47;;
6356;SDS011;3211;53.452;-2.264;2023-11-19T16:05:43;1.50;;;1.10;;
6356;SDS011;3211;53.452;-2.264;2023-11-19T16:08:32;1.20;;;1.10;;
6356;SDS011;3211;53.452;-2.264;2023-11-19T16:11:20;4.30;;;1.40;;
6356;SDS011;3211;53.452;-2.264;2023-11-19T16:14:09;4.40;;;1.37;;
6356;SDS011;3211;53.452;-2.264;2023-11-19T16:16:57;1.30;;;1.20;;
6356;SDS011;3211;53.452;-2.264;2023-11-19T16:19:44;1.67;;;1.23;;
6356;SDS011;3211;53.452;-2.264;2023-11-19T16:22:32;2.20;;;1.10;;
6356;SDS011;3211;53.452;-2.264;2023-11-19T16:25:19;1.43;;;1.10;;
6356;SDS011;3211;53.452;-2.264;2023-11-19T16:28:07;1.73;;;1.23;;
6356;SDS011;3211;53.452;-2.264;2023-11-19T16:30:56;1.57;;;1.33;;
6356;SDS011;3211;53.452;-2.264;2023-11-19T16:33:44;5.70;;;1.40;;
6356;SDS011;3211;53.452;-2.264;2023-11-19T16:36:31;3.50;;;1.30;;
6356;SDS011;3211;53.452;-2.264;2023-11-19T16:39:18;1.63;;;1.33;;
6356;SDS011;3211;53.452;-2.264;2023-11-19T16:42:06;1.80;;;1.20;;
6356;SDS011;3211;53.452;-2.264;2023-11-19T16:44:53;2.53;;;1.17;;
6356;SDS011;3211;53.452;-2.264;2023-11-19T16:47:42;2.70;;;1.60;;
6356;SDS011;3211;53.452;-2.264;2023-11-19T16:50:31;1.87;;;1.77;;
6356;SDS011;3211;53.452;-2.264;2023-11-19T16:53:18;3.77;;;1.50;;
6356;SDS011;3211;53.452;-2.264;2023-11-19T16:56:06;3.20;;;1.30;;
6356;SDS011;3211;53.452;-2.264;2023-11-19T16:58:53;2.03;;;1.40;;
6356;SDS011;3211;53.452;-2.264;2023-11-19T17:01:41;3.93;;;1.60;;
6356;SDS011;3211;53.452;-2.264;2023-11-19T17:04:32;2.00;;;1.50;;
6356;SDS011;3211;53.452;-2.264;2023-11-19T17:07:19;3.43;;;1.30;;
6356;SDS011;3211;53.452;-2.264;2023-11-19T17:10:07;1.60;;;1.20;;
6356;SDS011;3211;53.452;-2.264;2023-11-19T17:12:56;5.20;;;1.30;;
6356;SDS011;3211;53.452;-2.264;2023-11-19T17:15:43;5.63;;;1.40;;